sensor_id;sensor_type;location;lat;lon;timestamp;pressure;altitude;pressure_sealevel;temperature
74043;BMP280;62384;53.600;10.040;2022-12-04T00:00:10;-9275.66;;;0.98
74043;BMP280;62384;53.600;10.040;2022-12-04T00:02:37;-9277.78;;;1.06
74043;BMP280;62384;53.600;10.040;2022-12-04T00:05:04;-9280.25;;;1.16
74043;BMP280;62384;53.600;10.040;2022-12-04T00:07:30;-9281.31;;;1.20
74043;BMP280;62384;53.600;10.040;2022-12-04T00:09:55;-9279.88;;;1.14
74043;BMP280;62384;53.600;10.040;2022-12-04T00:12:20;-9271.34;;;0.81
74043;BMP280;62384;53.600;10.040;2022-12-04T00:14:46;-9278.16;;;1.08
74043;BMP280;62384;53.600;10.040;2022-12-04T00:17:11;-9278.44;;;1.09
74043;BMP280;62384;53.600;10.040;2022-12-04T00:19:36;-9278.69;;;1.10
74043;BMP280;62384;53.600;10.040;2022-12-04T00:22:01;-9278.16;;;1.08
74043;BMP280;62384;53.600;10.040;2022-12-04T00:24:27;-9276.19;;;1.00
74043;BMP280;62384;53.600;10.040;2022-12-04T00:26:52;-9276.06;;;0.99
74043;BMP280;62384;53.600;10.040;2022-12-04T00:29:17;-9275.28;;;0.96
74043;BMP280;62384;53.600;10.040;2022-12-04T00:31:43;-9279.22;;;1.12
74043;BMP280;62384;53.600;10.040;2022-12-04T00:34:08;-9278.03;;;1.07
74043;BMP280;62384;53.600;10.040;2022-12-04T00:36:34;-9279.22;;;1.12
74043;BMP280;62384;53.600;10.040;2022-12-04T00:38:59;-9280.78;;;1.18
74043;BMP280;62384;53.600;10.040;2022-12-04T00:41:28;-9285.38;;;1.35
74043;BMP280;62384;53.600;10.040;2022-12-04T00:43:54;-9280.53;;;1.17
74043;BMP280;62384;53.600;10.040;2022-12-04T00:46:22;-9281.19;;;1.19
74043;BMP280;62384;53.600;10.040;2022-12-04T00:48:48;-9280.13;;;1.15
74043;BMP280;62384;53.600;10.040;2022-12-04T00:51:17;-9278.44;;;1.09
74043;BMP280;62384;53.600;10.040;2022-12-04T00:53:43;-9275.53;;;0.97
74043;BMP280;62384;53.600;10.040;2022-12-04T00:56:14;-9282.50;;;1.24
74043;BMP280;62384;53.600;10.040;2022-12-04T00:58:40;-9280.41;;;1.16
74043;BMP280;62384;53.600;10.040;2022-12-04T01:01:09;-9285.91;;;1.37
74043;BMP280;62384;53.600;10.040;2022-12-04T01:03:35;-9283.28;;;1.27
74043;BMP280;62384;53.600;10.040;2022-12-04T01:06:01;-9277.25;;;1.04
74043;BMP280;62384;53.600;10.040;2022-12-04T01:08:26;-9281.97;;;1.22
74043;BMP280;62384;53.600;10.040;2022-12-04T01:10:52;-9284.59;;;1.32
74043;BMP280;62384;53.600;10.040;2022-12-04T01:13:17;-9283.41;;;1.28
74043;BMP280;62384;53.600;10.040;2022-12-04T01:15:42;-9284.59;;;1.32
74043;BMP280;62384;53.600;10.040;2022-12-04T01:18:09;-9283.94;;;1.30
74043;BMP280;62384;53.600;10.040;2022-12-04T01:20:35;-9285.91;;;1.37
74043;BMP280;62384;53.600;10.040;2022-12-04T01:23:01;-9283.81;;;1.29
74043;BMP280;62384;53.600;10.040;2022-12-04T01:25:26;-9283.94;;;1.30
74043;BMP280;62384;53.600;10.040;2022-12-04T01:27:52;-9283.69;;;1.29
74043;BMP280;62384;53.600;10.040;2022-12-04T01:30:17;-9283.56;;;1.28
74043;BMP280;62384;53.600;10.040;2022-12-04T01:32:42;-9286.03;;;1.38
74043;BMP280;62384;53.600;10.040;2022-12-04T01:35:08;-9284.06;;;1.30
74043;BMP280;62384;53.600;10.040;2022-12-04T01:37:33;-9285.38;;;1.35
74043;BMP280;62384;53.600;10.040;2022-12-04T01:39:58;-9285.66;;;1.36
74043;BMP280;62384;53.600;10.040;2022-12-04T01:42:24;-9287.22;;;1.42
74043;BMP280;62384;53.600;10.040;2022-12-04T01:47:55;-9280.78;;;1.18
74043;BMP280;62384;53.600;10.040;2022-12-04T01:50:22;-9286.81;;;1.41
74043;BMP280;62384;53.600;10.040;2022-12-04T01:52:47;-9286.56;;;1.40
74043;BMP280;62384;53.600;10.040;2022-12-04T01:55:13;-9285.50;;;1.36
74043;BMP280;62384;53.600;10.040;2022-12-04T01:57:38;-9285.13;;;1.34
74043;BMP280;62384;53.600;10.040;2022-12-04T02:00:08;-9286.69;;;1.40
74043;BMP280;62384;53.600;10.040;2022-12-04T02:02:37;-9286.97;;;1.41
74043;BMP280;62384;53.600;10.040;2022-12-04T02:05:05;-9285.78;;;1.37
74043;BMP280;62384;53.600;10.040;2022-12-04T02:07:31;-9281.44;;;1.20
74043;BMP280;62384;53.600;10.040;2022-12-04T02:09:56;-9283.28;;;1.27
74043;BMP280;62384;53.600;10.040;2022-12-04T02:12:50;-9282.75;;;1.25
74043;BMP280;62384;53.600;10.040;2022-12-04T02:15:23;-9281.31;;;1.20
74043;BMP280;62384;53.600;10.040;2022-12-04T02:18:01;-9283.69;;;1.29
74043;BMP280;62384;53.600;10.040;2022-12-04T02:20:52;-9283.69;;;1.29
74043;BMP280;62384;53.600;10.040;2022-12-04T02:23:42;-9286.03;;;1.38
74043;BMP280;62384;53.600;10.040;2022-12-04T02:28:47;-9285.00;;;1.34
74043;BMP280;62384;53.600;10.040;2022-12-04T02:31:18;-9285.25;;;1.35
74043;BMP280;62384;53.600;10.040;2022-12-04T02:33:50;-9284.47;;;1.32
74043;BMP280;62384;53.600;10.040;2022-12-04T02:36:20;-9286.31;;;1.39
74043;BMP280;62384;53.600;10.040;2022-12-04T02:39:21;-9286.03;;;1.38
74043;BMP280;62384;53.600;10.040;2022-12-04T02:41:50;-9286.03;;;1.38
74043;BMP280;62384;53.600;10.040;2022-12-04T02:44:26;-9287.75;;;1.44
74043;BMP280;62384;53.600;10.040;2022-12-04T02:46:56;-9286.97;;;1.41
74043;BMP280;62384;53.600;10.040;2022-12-04T02:49:51;-9285.38;;;1.35
74043;BMP280;62384;53.600;10.040;2022-12-04T02:52:21;-9284.72;;;1.33
74043;BMP280;62384;53.600;10.040;2022-12-04T02:54:52;-9287.63;;;1.44
74043;BMP280;62384;53.600;10.040;2022-12-04T02:57:26;-9286.56;;;1.40
74043;BMP280;62384;53.600;10.040;2022-12-04T02:59:55;-9285.91;;;1.37
74043;BMP280;62384;53.600;10.040;2022-12-04T03:02:26;-9287.09;;;1.42
74043;BMP280;62384;53.600;10.040;2022-12-04T03:04:54;-9285.66;;;1.36
74043;BMP280;62384;53.600;10.040;2022-12-04T03:07:26;-9284.47;;;1.32
74043;BMP280;62384;53.600;10.040;2022-12-04T03:09:59;-9280.53;;;1.17
74043;BMP280;62384;53.600;10.040;2022-12-04T03:12:39;-9289.47;;;1.51
74043;BMP280;62384;53.600;10.040;2022-12-04T03:15:10;-9290.50;;;1.55
74043;BMP280;62384;53.600;10.040;2022-12-04T03:17:46;-9287.63;;;1.44
74043;BMP280;62384;53.600;10.040;2022-12-04T03:20:15;-9288.41;;;1.47
74043;BMP280;62384;53.600;10.040;2022-12-04T03:22:43;-9288.94;;;1.49
74043;BMP280;62384;53.600;10.040;2022-12-04T03:25:11;-9288.81;;;1.48
74043;BMP280;62384;53.600;10.040;2022-12-04T03:27:55;-9290.25;;;1.54
74043;BMP280;62384;53.600;10.040;2022-12-04T03:30:22;-9290.75;;;1.56
74043;BMP280;62384;53.600;10.040;2022-12-04T03:33:08;-9291.16;;;1.57
74043;BMP280;62384;53.600;10.040;2022-12-04T03:36:01;-9292.47;;;1.63
74043;BMP280;62384;53.600;10.040;2022-12-04T03:41:15;-9290.50;;;1.55
74043;BMP280;62384;53.600;10.040;2022-12-04T03:43:51;-9291.44;;;1.58
74043;BMP280;62384;53.600;10.040;2022-12-04T03:46:28;-9289.31;;;1.50
74043;BMP280;62384;53.600;10.040;2022-12-04T03:49:03;-9290.13;;;1.53
74043;BMP280;62384;53.600;10.040;2022-12-04T03:51:50;-9294.06;;;1.69
74043;BMP280;62384;53.600;10.040;2022-12-04T03:54:39;-9292.59;;;1.63
74043;BMP280;62384;53.600;10.040;2022-12-04T03:57:08;-9292.22;;;1.62
74043;BMP280;62384;53.600;10.040;2022-12-04T03:59:43;-9292.22;;;1.62
74043;BMP280;62384;53.600;10.040;2022-12-04T04:02:13;-9289.84;;;1.52
74043;BMP280;62384;53.600;10.040;2022-12-04T04:04:41;-9289.19;;;1.50
74043;BMP280;62384;53.600;10.040;2022-12-04T04:07:14;-9289.59;;;1.51
74043;BMP280;62384;53.600;10.040;2022-12-04T04:09:44;-9290.75;;;1.56
74043;BMP280;62384;53.600;10.040;2022-12-04T04:12:25;-9289.59;;;1.51
74043;BMP280;62384;53.600;10.040;2022-12-04T04:14:54;-9289.47;;;1.51
74043;BMP280;62384;53.600;10.040;2022-12-04T04:17:44;-9288.94;;;1.49
74043;BMP280;62384;53.600;10.040;2022-12-04T04:20:34;-9290.91;;;1.56
74043;BMP280;62384;53.600;10.040;2022-12-04T04:23:20;-9295.50;;;1.74
74043;BMP280;62384;53.600;10.040;2022-12-04T04:26:05;-9292.88;;;1.64
74043;BMP280;62384;53.600;10.040;2022-12-04T04:28:33;-9292.88;;;1.64
74043;BMP280;62384;53.600;10.040;2022-12-04T04:33:43;-9295.50;;;1.74
74043;BMP280;62384;53.600;10.040;2022-12-04T04:39:16;-9292.59;;;1.63
74043;BMP280;62384;53.600;10.040;2022-12-04T04:44:50;-9292.47;;;1.63
74043;BMP280;62384;53.600;10.040;2022-12-04T04:47:23;-9293.78;;;1.68
74043;BMP280;62384;53.600;10.040;2022-12-04T04:49:52;-9291.56;;;1.59
74043;BMP280;62384;53.600;10.040;2022-12-04T04:52:19;-9294.06;;;1.69
74043;BMP280;62384;53.600;10.040;2022-12-04T04:54:46;-9291.94;;;1.60
74043;BMP280;62384;53.600;10.040;2022-12-04T04:57:11;-9293.94;;;1.68
74043;BMP280;62384;53.600;10.040;2022-12-04T04:59:36;-9290.25;;;1.54
74043;BMP280;62384;53.600;10.040;2022-12-04T05:02:02;-9294.06;;;1.69
74043;BMP280;62384;53.600;10.040;2022-12-04T05:04:28;-9295.88;;;1.76
74043;BMP280;62384;53.600;10.040;2022-12-04T05:06:53;-9294.97;;;1.72
74043;BMP280;62384;53.600;10.040;2022-12-04T05:09:18;-9294.84;;;1.72
74043;BMP280;62384;53.600;10.040;2022-12-04T05:11:43;-9291.81;;;1.60
74043;BMP280;62384;53.600;10.040;2022-12-04T05:14:09;-9293.41;;;1.66
74043;BMP280;62384;53.600;10.040;2022-12-04T05:16:34;-9293.13;;;1.65
74043;BMP280;62384;53.600;10.040;2022-12-04T05:19:01;-9293.28;;;1.66
74043;BMP280;62384;53.600;10.040;2022-12-04T05:21:45;-9294.31;;;1.70
74043;BMP280;62384;53.600;10.040;2022-12-04T05:24:10;-9293.94;;;1.68
74043;BMP280;62384;53.600;10.040;2022-12-04T05:26:35;-9295.38;;;1.74
74043;BMP280;62384;53.600;10.040;2022-12-04T05:29:01;-9292.34;;;1.62
74043;BMP280;62384;53.600;10.040;2022-12-04T05:31:26;-9294.44;;;1.70
74043;BMP280;62384;53.600;10.040;2022-12-04T05:33:51;-9293.53;;;1.67
74043;BMP280;62384;53.600;10.040;2022-12-04T05:36:16;-9293.94;;;1.68
74043;BMP280;62384;53.600;10.040;2022-12-04T05:38:42;-9294.31;;;1.70
74043;BMP280;62384;53.600;10.040;2022-12-04T05:41:07;-9293.41;;;1.66
74043;BMP280;62384;53.600;10.040;2022-12-04T05:43:33;-9294.56;;;1.71
74043;BMP280;62384;53.600;10.040;2022-12-04T05:46:03;-9294.19;;;1.69
74043;BMP280;62384;53.600;10.040;2022-12-04T05:48:29;-9293.94;;;1.68
74043;BMP280;62384;53.600;10.040;2022-12-04T05:50:55;-9294.84;;;1.72
74043;BMP280;62384;53.600;10.040;2022-12-04T05:53:20;-9294.56;;;1.71
74043;BMP280;62384;53.600;10.040;2022-12-04T05:55:56;-9293.78;;;1.68
74043;BMP280;62384;53.600;10.040;2022-12-04T05:58:21;-9293.66;;;1.67
74043;BMP280;62384;53.600;10.040;2022-12-04T06:00:47;-9294.06;;;1.69
74043;BMP280;62384;53.600;10.040;2022-12-04T06:03:12;-9294.44;;;1.70
74043;BMP280;62384;53.600;10.040;2022-12-04T06:05:37;-9294.72;;;1.71
74043;BMP280;62384;53.600;10.040;2022-12-04T06:08:02;-9294.72;;;1.71
74043;BMP280;62384;53.600;10.040;2022-12-04T06:10:28;-9296.41;;;1.78
74043;BMP280;62384;53.600;10.040;2022-12-04T06:12:53;-9294.19;;;1.69
74043;BMP280;62384;53.600;10.040;2022-12-04T06:15:22;-9295.63;;;1.75
74043;BMP280;62384;53.600;10.040;2022-12-04T06:17:47;-9296.03;;;1.76
74043;BMP280;62384;53.600;10.040;2022-12-04T06:20:12;-9295.88;;;1.76
74043;BMP280;62384;53.600;10.040;2022-12-04T06:22:38;-9296.28;;;1.77
74043;BMP280;62384;53.600;10.040;2022-12-04T06:25:03;-9293.41;;;1.66
74043;BMP280;62384;53.600;10.040;2022-12-04T06:27:29;-9296.94;;;1.80
74043;BMP280;62384;53.600;10.040;2022-12-04T06:29:54;-9296.28;;;1.77
74043;BMP280;62384;53.600;10.040;2022-12-04T06:32:19;-9293.78;;;1.68
74043;BMP280;62384;53.600;10.040;2022-12-04T06:34:45;-9295.88;;;1.76
74043;BMP280;62384;53.600;10.040;2022-12-04T06:37:10;-9296.69;;;1.79
74043;BMP280;62384;53.600;10.040;2022-12-04T06:39:35;-9296.69;;;1.79
74043;BMP280;62384;53.600;10.040;2022-12-04T06:42:00;-9297.59;;;1.82
74043;BMP280;62384;53.600;10.040;2022-12-04T06:44:26;-9298.78;;;1.87
74043;BMP280;62384;53.600;10.040;2022-12-04T06:46:51;-9299.19;;;1.88
74043;BMP280;62384;53.600;10.040;2022-12-04T06:49:16;-9296.28;;;1.77
74043;BMP280;62384;53.600;10.040;2022-12-04T06:51:41;-9298.66;;;1.86
74043;BMP280;62384;53.600;10.040;2022-12-04T06:54:08;-9289.47;;;1.51
74043;BMP280;62384;53.600;10.040;2022-12-04T06:56:33;-9296.81;;;1.79
74043;BMP280;62384;53.600;10.040;2022-12-04T06:59:01;-9298.91;;;1.87
74043;BMP280;62384;53.600;10.040;2022-12-04T07:01:29;-9301.00;;;1.95
74043;BMP280;62384;53.600;10.040;2022-12-04T07:03:56;-9301.41;;;1.97
74043;BMP280;62384;53.600;10.040;2022-12-04T07:06:27;-9296.94;;;1.80
74043;BMP280;62384;53.600;10.040;2022-12-04T07:08:56;-9301.41;;;1.97
74043;BMP280;62384;53.600;10.040;2022-12-04T07:11:22;-9300.63;;;1.94
74043;BMP280;62384;53.600;10.040;2022-12-04T07:13:48;-9301.16;;;1.96
74043;BMP280;62384;53.600;10.040;2022-12-04T07:16:15;-9301.81;;;1.98
74043;BMP280;62384;53.600;10.040;2022-12-04T07:18:41;-9302.84;;;2.02
74043;BMP280;62384;53.600;10.040;2022-12-04T07:21:08;-9304.97;;;2.10
74043;BMP280;62384;53.600;10.040;2022-12-04T07:23:34;-9302.72;;;2.02
74043;BMP280;62384;53.600;10.040;2022-12-04T07:26:11;-9303.25;;;2.04
74043;BMP280;62384;53.600;10.040;2022-12-04T07:28:37;-9302.97;;;2.03
74043;BMP280;62384;53.600;10.040;2022-12-04T07:31:08;-9303.91;;;2.06
74043;BMP280;62384;53.600;10.040;2022-12-04T07:33:34;-9301.81;;;1.98
74043;BMP280;62384;53.600;10.040;2022-12-04T07:36:00;-9304.56;;;2.09
74043;BMP280;62384;53.600;10.040;2022-12-04T07:38:27;-9303.25;;;2.04
74043;BMP280;62384;53.600;10.040;2022-12-04T07:41:01;-9305.63;;;2.13
74043;BMP280;62384;53.600;10.040;2022-12-04T07:43:28;-9304.97;;;2.10
74043;BMP280;62384;53.600;10.040;2022-12-04T07:45:53;-9305.09;;;2.11
74043;BMP280;62384;53.600;10.040;2022-12-04T07:48:18;-9308.25;;;2.23
74043;BMP280;62384;53.600;10.040;2022-12-04T07:50:44;-9306.53;;;2.17
74043;BMP280;62384;53.600;10.040;2022-12-04T07:53:09;-9306.94;;;2.18
74043;BMP280;62384;53.600;10.040;2022-12-04T07:55:34;-9305.75;;;2.13
74043;BMP280;62384;53.600;10.040;2022-12-04T07:58:00;-9309.16;;;2.27
74043;BMP280;62384;53.600;10.040;2022-12-04T08:00:25;-9306.78;;;2.18
74043;BMP280;62384;53.600;10.040;2022-12-04T08:02:50;-9305.22;;;2.11
74043;BMP280;62384;53.600;10.040;2022-12-04T08:05:16;-9298.66;;;1.86
74043;BMP280;62384;53.600;10.040;2022-12-04T08:07:41;-9308.63;;;2.25
74043;BMP280;62384;53.600;10.040;2022-12-04T08:10:07;-9311.66;;;2.36
74043;BMP280;62384;53.600;10.040;2022-12-04T08:12:33;-9311.41;;;2.35
74043;BMP280;62384;53.600;10.040;2022-12-04T08:14:58;-9310.22;;;2.31
74043;BMP280;62384;53.600;10.040;2022-12-04T08:17:24;-9296.94;;;1.80
74043;BMP280;62384;53.600;10.040;2022-12-04T08:19:49;-9307.59;;;2.21
74043;BMP280;62384;53.600;10.040;2022-12-04T08:22:14;-9308.09;;;2.23
74043;BMP280;62384;53.600;10.040;2022-12-04T08:24:40;-9308.38;;;2.24
74043;BMP280;62384;53.600;10.040;2022-12-04T08:27:06;-9309.16;;;2.27
74043;BMP280;62384;53.600;10.040;2022-12-04T08:29:31;-9308.78;;;2.25
74043;BMP280;62384;53.600;10.040;2022-12-04T08:31:57;-9308.09;;;2.23
74043;BMP280;62384;53.600;10.040;2022-12-04T08:34:22;-9314.03;;;2.45
74043;BMP280;62384;53.600;10.040;2022-12-04T08:36:48;-9315.59;;;2.51
74043;BMP280;62384;53.600;10.040;2022-12-04T08:39:13;-9316.91;;;2.56
74043;BMP280;62384;53.600;10.040;2022-12-04T08:41:38;-9320.97;;;2.72
74043;BMP280;62384;53.600;10.040;2022-12-04T08:44:04;-9314.16;;;2.46
74043;BMP280;62384;53.600;10.040;2022-12-04T08:46:29;-9318.09;;;2.61
74043;BMP280;62384;53.600;10.040;2022-12-04T08:48:55;-9318.09;;;2.61
74043;BMP280;62384;53.600;10.040;2022-12-04T08:51:26;-9320.19;;;2.69
74043;BMP280;62384;53.600;10.040;2022-12-04T08:53:57;-9320.97;;;2.72
74043;BMP280;62384;53.600;10.040;2022-12-04T08:56:23;-9320.06;;;2.68
74043;BMP280;62384;53.600;10.040;2022-12-04T08:58:49;-9321.66;;;2.75
74043;BMP280;62384;53.600;10.040;2022-12-04T09:01:15;-9324.00;;;2.84
74043;BMP280;62384;53.600;10.040;2022-12-04T09:03:41;-9322.03;;;2.76
74043;BMP280;62384;53.600;10.040;2022-12-04T09:06:11;-9323.88;;;2.83
74043;BMP280;62384;53.600;10.040;2022-12-04T09:08:40;-9324.66;;;2.86
74043;BMP280;62384;53.600;10.040;2022-12-04T09:11:11;-9323.09;;;2.80
74043;BMP280;62384;53.600;10.040;2022-12-04T09:13:37;-9323.88;;;2.83
74043;BMP280;62384;53.600;10.040;2022-12-04T09:16:05;-9326.50;;;2.93
74043;BMP280;62384;53.600;10.040;2022-12-04T09:18:31;-9326.63;;;2.94
74043;BMP280;62384;53.600;10.040;2022-12-04T09:20:58;-9326.91;;;2.95
74043;BMP280;62384;53.600;10.040;2022-12-04T09:23:24;-9324.53;;;2.86
74043;BMP280;62384;53.600;10.040;2022-12-04T09:25:50;-9320.06;;;2.68
74043;BMP280;62384;53.600;10.040;2022-12-04T09:28:16;-9328.22;;;3.00
74043;BMP280;62384;53.600;10.040;2022-12-04T09:30:42;-9328.88;;;3.02
74043;BMP280;62384;53.600;10.040;2022-12-04T09:33:07;-9328.22;;;3.00
74043;BMP280;62384;53.600;10.040;2022-12-04T09:35:32;-9328.88;;;3.02
74043;BMP280;62384;53.600;10.040;2022-12-04T09:37:58;-9322.97;;;2.80
74043;BMP280;62384;53.600;10.040;2022-12-04T09:40:30;-9332.94;;;3.18
74043;BMP280;62384;53.600;10.040;2022-12-04T09:46:10;-9336.50;;;3.32
74043;BMP280;62384;53.600;10.040;2022-12-04T09:48:40;-9336.88;;;3.33
74043;BMP280;62384;53.600;10.040;2022-12-04T09:51:07;-9336.75;;;3.33
74043;BMP280;62384;53.600;10.040;2022-12-04T09:56:17;-9339.91;;;3.45
74043;BMP280;62384;53.600;10.040;2022-12-04T10:01:48;-9337.28;;;3.35
74043;BMP280;62384;53.600;10.040;2022-12-04T10:04:15;-9335.97;;;3.30
74043;BMP280;62384;53.600;10.040;2022-12-04T10:07:02;-9341.88;;;3.52
74043;BMP280;62384;53.600;10.040;2022-12-04T10:09:43;-9337.16;;;3.34
74043;BMP280;62384;53.600;10.040;2022-12-04T10:15:09;-9340.31;;;3.46
74043;BMP280;62384;53.600;10.040;2022-12-04T10:17:46;-9339.78;;;3.44
74043;BMP280;62384;53.600;10.040;2022-12-04T10:23:17;-9348.72;;;3.78
74043;BMP280;62384;53.600;10.040;2022-12-04T10:25:43;-9347.78;;;3.75
74043;BMP280;62384;53.600;10.040;2022-12-04T10:28:47;-9345.56;;;3.66
74043;BMP280;62384;53.600;10.040;2022-12-04T10:31:15;-9342.94;;;3.56
74043;BMP280;62384;53.600;10.040;2022-12-04T10:36:17;-9343.06;;;3.57
74043;BMP280;62384;53.600;10.040;2022-12-04T10:38:51;-9344.63;;;3.63
74043;BMP280;62384;53.600;10.040;2022-12-04T10:41:32;-9345.16;;;3.65
74043;BMP280;62384;53.600;10.040;2022-12-04T10:43:59;-9343.59;;;3.59
74043;BMP280;62384;53.600;10.040;2022-12-04T10:46:33;-9345.94;;;3.68
74043;BMP280;62384;53.600;10.040;2022-12-04T10:49:04;-9346.22;;;3.69
74043;BMP280;62384;53.600;10.040;2022-12-04T10:51:42;-9347.13;;;3.72
74043;BMP280;62384;53.600;10.040;2022-12-04T10:57:00;-9343.84;;;3.60
74043;BMP280;62384;53.600;10.040;2022-12-04T10:59:26;-9346.34;;;3.69
74043;BMP280;62384;53.600;10.040;2022-12-04T11:02:03;-9336.75;;;3.33
74043;BMP280;62384;53.600;10.040;2022-12-04T11:04:34;-9346.09;;;3.68
74043;BMP280;62384;53.600;10.040;2022-12-04T11:07:05;-9348.06;;;3.76
74043;BMP280;62384;53.600;10.040;2022-12-04T11:09:32;-9349.50;;;3.81
74043;BMP280;62384;53.600;10.040;2022-12-04T11:12:07;-9347.53;;;3.74
74043;BMP280;62384;53.600;10.040;2022-12-04T11:14:33;-9343.31;;;3.58
74043;BMP280;62384;53.600;10.040;2022-12-04T11:17:05;-9347.91;;;3.75
74043;BMP280;62384;53.600;10.040;2022-12-04T11:19:33;-9337.53;;;3.36
74043;BMP280;62384;53.600;10.040;2022-12-04T11:22:11;-9344.91;;;3.64
74043;BMP280;62384;53.600;10.040;2022-12-04T11:24:38;-9337.28;;;3.35
74043;BMP280;62384;53.600;10.040;2022-12-04T11:27:05;-9347.00;;;3.72
74043;BMP280;62384;53.600;10.040;2022-12-04T11:29:35;-9348.84;;;3.79
74043;BMP280;62384;53.600;10.040;2022-12-04T11:32:01;-9347.53;;;3.74
74043;BMP280;62384;53.600;10.040;2022-12-04T11:34:33;-9348.06;;;3.76
74043;BMP280;62384;53.600;10.040;2022-12-04T11:36:59;-9348.31;;;3.77
74043;BMP280;62384;53.600;10.040;2022-12-04T11:39:39;-9346.63;;;3.70
74043;BMP280;62384;53.600;10.040;2022-12-04T11:47:20;-9352.00;;;3.91
74043;BMP280;62384;53.600;10.040;2022-12-04T11:50:02;-9351.88;;;3.91
74043;BMP280;62384;53.600;10.040;2022-12-04T11:52:44;-9350.03;;;3.83
74043;BMP280;62384;53.600;10.040;2022-12-04T11:55:38;-9352.00;;;3.91
74043;BMP280;62384;53.600;10.040;2022-12-04T11:58:17;-9355.28;;;4.04
74043;BMP280;62384;53.600;10.040;2022-12-04T12:09:07;-9347.13;;;3.72
74043;BMP280;62384;53.600;10.040;2022-12-04T12:11:41;-9355.53;;;4.05
74043;BMP280;62384;53.600;10.040;2022-12-04T12:14:18;-9356.47;;;4.08
74043;BMP280;62384;53.600;10.040;2022-12-04T12:22:51;-9355.03;;;4.03
74043;BMP280;62384;53.600;10.040;2022-12-04T12:25:58;-9357.13;;;4.11
74043;BMP280;62384;53.600;10.040;2022-12-04T12:29:02;-9355.28;;;4.04
74043;BMP280;62384;53.600;10.040;2022-12-04T12:32:12;-9356.88;;;4.10
74043;BMP280;62384;53.600;10.040;2022-12-04T12:34:41;-9356.47;;;4.08
74043;BMP280;62384;53.600;10.040;2022-12-04T12:37:15;-9358.16;;;4.15
74043;BMP280;62384;53.600;10.040;2022-12-04T12:42:41;-9358.03;;;4.14
74043;BMP280;62384;53.600;10.040;2022-12-04T12:45:28;-9355.03;;;4.03
74043;BMP280;62384;53.600;10.040;2022-12-04T12:48:00;-9358.31;;;4.15
74043;BMP280;62384;53.600;10.040;2022-12-04T12:50:40;-9359.75;;;4.21
74043;BMP280;62384;53.600;10.040;2022-12-04T12:53:14;-9356.59;;;4.09
74043;BMP280;62384;53.600;10.040;2022-12-04T12:55:48;-9356.88;;;4.10
74043;BMP280;62384;53.600;10.040;2022-12-04T13:01:14;-9349.91;;;3.83
74043;BMP280;62384;53.600;10.040;2022-12-04T13:03:54;-9359.50;;;4.20
74043;BMP280;62384;53.600;10.040;2022-12-04T13:06:27;-9359.22;;;4.19
74043;BMP280;62384;53.600;10.040;2022-12-04T13:11:39;-9361.06;;;4.26
74043;BMP280;62384;53.600;10.040;2022-12-04T13:14:05;-9361.19;;;4.26
74043;BMP280;62384;53.600;10.040;2022-12-04T13:19:16;-9362.78;;;4.32
74043;BMP280;62384;53.600;10.040;2022-12-04T13:21:48;-9363.44;;;4.35
74043;BMP280;62384;53.600;10.040;2022-12-04T13:30:30;-9365.53;;;4.43
74043;BMP280;62384;53.600;10.040;2022-12-04T13:33:08;-9356.59;;;4.09
74043;BMP280;62384;53.600;10.040;2022-12-04T13:41:21;-9363.81;;;4.36
74043;BMP280;62384;53.600;10.040;2022-12-04T13:43:49;-9365.13;;;4.41
74043;BMP280;62384;53.600;10.040;2022-12-04T13:48:47;-9363.16;;;4.34
74043;BMP280;62384;53.600;10.040;2022-12-04T13:53:39;-9363.44;;;4.35
74043;BMP280;62384;53.600;10.040;2022-12-04T13:56:07;-9363.03;;;4.33
74043;BMP280;62384;53.600;10.040;2022-12-04T13:58:34;-9368.16;;;4.53
74043;BMP280;62384;53.600;10.040;2022-12-04T14:01:21;-9367.91;;;4.52
74043;BMP280;62384;53.600;10.040;2022-12-04T14:03:49;-9364.47;;;4.39
74043;BMP280;62384;53.600;10.040;2022-12-04T14:06:22;-9370.13;;;4.61
74043;BMP280;62384;53.600;10.040;2022-12-04T14:08:55;-9368.56;;;4.55
74043;BMP280;62384;53.600;10.040;2022-12-04T14:11:20;-9367.91;;;4.52
74043;BMP280;62384;53.600;10.040;2022-12-04T14:13:49;-9369.09;;;4.57
74043;BMP280;62384;53.600;10.040;2022-12-04T14:16:22;-9369.22;;;4.57
74043;BMP280;62384;53.600;10.040;2022-12-04T14:18:52;-9368.97;;;4.56
74043;BMP280;62384;53.600;10.040;2022-12-04T14:21:17;-9367.78;;;4.52
74043;BMP280;62384;53.600;10.040;2022-12-04T14:23:43;-9368.97;;;4.56
74043;BMP280;62384;53.600;10.040;2022-12-04T14:26:26;-9371.47;;;4.66
74043;BMP280;62384;53.600;10.040;2022-12-04T14:29:03;-9371.47;;;4.66
74043;BMP280;62384;53.600;10.040;2022-12-04T14:31:37;-9370.94;;;4.64
74043;BMP280;62384;53.600;10.040;2022-12-04T14:34:23;-9368.97;;;4.56
74043;BMP280;62384;53.600;10.040;2022-12-04T14:36:53;-9369.09;;;4.57
74043;BMP280;62384;53.600;10.040;2022-12-04T14:41:51;-9371.72;;;4.67
74043;BMP280;62384;53.600;10.040;2022-12-04T14:44:26;-9368.28;;;4.54
74043;BMP280;62384;53.600;10.040;2022-12-04T14:46:55;-9368.28;;;4.54
74043;BMP280;62384;53.600;10.040;2022-12-04T14:54:49;-9367.91;;;4.52
74043;BMP280;62384;53.600;10.040;2022-12-04T14:57:32;-9368.97;;;4.56
74043;BMP280;62384;53.600;10.040;2022-12-04T15:00:04;-9369.63;;;4.59
74043;BMP280;62384;53.600;10.040;2022-12-04T15:02:40;-9368.56;;;4.55
74043;BMP280;62384;53.600;10.040;2022-12-04T15:05:22;-9366.72;;;4.48
74043;BMP280;62384;53.600;10.040;2022-12-04T15:07:51;-9370.00;;;4.60
74043;BMP280;62384;53.600;10.040;2022-12-04T15:10:24;-9369.88;;;4.60
74043;BMP280;62384;53.600;10.040;2022-12-04T15:13:09;-9369.63;;;4.59
74043;BMP280;62384;53.600;10.040;2022-12-04T15:15:35;-9368.69;;;4.55
74043;BMP280;62384;53.600;10.040;2022-12-04T15:18:14;-9369.34;;;4.58
74043;BMP280;62384;53.600;10.040;2022-12-04T15:23:16;-9368.56;;;4.55
74043;BMP280;62384;53.600;10.040;2022-12-04T15:25:48;-9367.91;;;4.52
74043;BMP280;62384;53.600;10.040;2022-12-04T15:28:45;-9369.75;;;4.59
74043;BMP280;62384;53.600;10.040;2022-12-04T15:33:53;-9369.47;;;4.58
74043;BMP280;62384;53.600;10.040;2022-12-04T15:36:38;-9370.13;;;4.61
74043;BMP280;62384;53.600;10.040;2022-12-04T15:39:07;-9369.75;;;4.59
74043;BMP280;62384;53.600;10.040;2022-12-04T15:41:36;-9372.13;;;4.68
74043;BMP280;62384;53.600;10.040;2022-12-04T15:44:18;-9367.91;;;4.52
74043;BMP280;62384;53.600;10.040;2022-12-04T15:46:45;-9372.50;;;4.70
74043;BMP280;62384;53.600;10.040;2022-12-04T15:49:22;-9374.09;;;4.76
74043;BMP280;62384;53.600;10.040;2022-12-04T15:51:48;-9370.94;;;4.64
74043;BMP280;62384;53.600;10.040;2022-12-04T15:54:19;-9372.50;;;4.70
74043;BMP280;62384;53.600;10.040;2022-12-04T15:57:02;-9372.78;;;4.71
74043;BMP280;62384;53.600;10.040;2022-12-04T15:59:28;-9374.34;;;4.77
74043;BMP280;62384;53.600;10.040;2022-12-04T16:01:58;-9373.94;;;4.75
74043;BMP280;62384;53.600;10.040;2022-12-04T16:04:28;-9374.59;;;4.78